createdAt,value
2022-07-26T00:00:37.763Z,60.77
2022-07-26T00:10:43.016Z,60.84
2022-07-26T00:20:48.577Z,61.94
2022-07-26T00:30:51.343Z,62.88
2022-07-26T00:40:54.762Z,63.64
2022-07-26T00:50:59.117Z,64.74
2022-07-26T01:01:02.613Z,65.32
2022-07-26T01:11:05.701Z,66.20
2022-07-26T01:21:13.665Z,66.83
2022-07-26T01:31:16.663Z,67.34
2022-07-26T01:41:37.411Z,68.50
2022-07-26T01:51:43.573Z,68.85
2022-07-26T02:01:48.670Z,69.14
2022-07-26T02:11:50.805Z,69.52
2022-07-26T02:21:56.313Z,70.45
2022-07-26T02:32:01.192Z,70.78
2022-07-26T02:42:05.862Z,71.45
2022-07-26T02:52:10.821Z,72.42
2022-07-26T03:02:20.316Z,72.66
2022-07-26T03:22:27.759Z,71.84
2022-07-26T03:32:39.462Z,70.59
2022-07-26T03:42:44.373Z,68.70
2022-07-26T03:52:49.796Z,68.02
2022-07-26T04:02:52.083Z,68.95
2022-07-26T04:12:56.355Z,65.38
2022-07-26T04:22:58.449Z,61.02
2022-07-26T04:33:02.772Z,61.32
2022-07-26T04:43:10.206Z,60.92
2022-07-26T04:53:20.212Z,61.21
2022-07-26T05:03:25.468Z,60.03
2022-07-26T05:13:32.425Z,57.49
2022-07-26T05:23:34.528Z,56.85
2022-07-26T05:33:39.906Z,55.93
2022-07-26T05:43:42.302Z,55.58
2022-07-26T05:53:47.005Z,55.08
2022-07-26T06:03:53.983Z,55.00
2022-07-26T06:13:56.740Z,53.12
2022-07-26T06:23:59.090Z,50.44
2022-07-26T06:34:01.196Z,48.76
2022-07-26T06:44:03.519Z,47.61
2022-07-26T06:54:08.056Z,46.18
2022-07-26T07:04:14.269Z,44.20
2022-07-26T07:14:19.140Z,43.31
2022-07-26T07:24:21.700Z,42.38
2022-07-26T07:34:24.843Z,40.81
2022-07-26T07:44:29.099Z,40.23
2022-07-26T07:54:31.831Z,39.05
2022-07-26T08:04:36.809Z,40.61
2022-07-26T08:14:38.890Z,40.80
2022-07-26T08:24:47.022Z,41.62
2022-07-26T08:34:51.547Z,41.77
2022-07-26T08:44:53.660Z,41.29
2022-07-26T08:54:58.899Z,38.77
2022-07-26T09:05:07.153Z,38.35
2022-07-26T09:15:21.639Z,37.91
2022-07-26T09:25:24.914Z,37.60
2022-07-26T09:35:52.281Z,38.67
2022-07-26T09:46:05.821Z,37.99
2022-07-26T09:56:09.689Z,38.75
2022-07-26T10:06:11.997Z,39.42
2022-07-26T10:16:33.334Z,39.62
2022-07-26T10:26:37.283Z,40.57
2022-07-26T10:36:40.093Z,41.46
2022-07-26T10:47:08.377Z,42.57
2022-07-26T10:57:12.884Z,42.54
2022-07-26T11:07:14.916Z,42.38
2022-07-26T11:17:29.079Z,43.08
2022-07-26T11:27:33.378Z,43.34
2022-07-26T11:37:35.623Z,44.75
2022-07-26T11:47:40.066Z,46.23
2022-07-26T11:57:42.310Z,46.88
2022-07-26T12:07:58.049Z,48.31
2022-07-26T12:18:02.171Z,50.48
2022-07-26T12:28:06.998Z,58.50
2022-07-26T12:38:17.009Z,81.71
2022-07-26T12:48:19.157Z,91.90
2022-07-26T12:58:25.691Z,96.56
2022-07-26T13:08:28.691Z,100.00
2022-07-26T13:18:30.914Z,100.00
2022-07-26T13:28:37.332Z,100.00
2022-07-26T13:38:42.910Z,100.00
2022-07-26T13:49:00.201Z,100.00
2022-07-26T13:59:03.202Z,100.00
2022-07-26T14:09:10.746Z,100.00
2022-07-26T14:19:14.249Z,100.00
2022-07-26T14:29:21.459Z,100.00
2022-07-26T14:39:23.485Z,100.00
2022-07-26T14:49:27.950Z,100.00
2022-07-26T14:59:32.952Z,100.00
2022-07-26T15:09:34.954Z,100.00
2022-07-26T15:19:37.226Z,100.00
2022-07-26T15:29:39.354Z,100.00
2022-07-26T15:39:41.746Z,100.00
2022-07-26T15:49:44.853Z,100.00
2022-07-26T15:59:46.994Z,100.00
2022-07-26T16:09:49.152Z,100.00
2022-07-26T16:19:51.893Z,100.00
2022-07-26T16:29:56.200Z,100.00
2022-07-26T16:40:08.944Z,100.00
2022-07-26T16:50:13.543Z,100.00
2022-07-26T17:00:30.317Z,100.00
2022-07-26T17:10:34.596Z,99.79
2022-07-26T17:20:39.204Z,100.00
2022-07-26T17:30:46.224Z,100.00
2022-07-26T17:41:06.258Z,100.00
2022-07-26T17:51:17.616Z,100.00
2022-07-26T18:01:22.157Z,100.00
2022-07-26T18:11:34.988Z,100.00
2022-07-26T18:21:45.344Z,100.00
2022-07-26T18:31:51.008Z,100.00
2022-07-26T18:41:55.631Z,100.00
2022-07-26T18:52:08.519Z,100.00
2022-07-26T19:02:13.331Z,100.00
2022-07-26T19:12:20.883Z,100.00
2022-07-26T19:22:23.059Z,100.00
2022-07-26T19:32:29.045Z,100.00
2022-07-26T19:42:33.808Z,100.00
2022-07-26T19:52:40.837Z,100.00
2022-07-26T20:02:45.540Z,100.00
2022-07-26T20:12:51.387Z,100.00
2022-07-26T20:22:53.433Z,100.00
2022-07-26T20:32:57.713Z,100.00
2022-07-26T20:43:18.633Z,100.00
2022-07-26T20:53:23.919Z,100.00
2022-07-26T21:03:29.610Z,100.00
2022-07-26T21:13:45.899Z,100.00
2022-07-26T21:23:51.371Z,100.00
2022-07-26T21:33:56.031Z,100.00
2022-07-26T21:43:59.861Z,100.00
2022-07-26T21:54:16.196Z,100.00
2022-07-26T22:04:27.816Z,100.00
2022-07-26T22:14:30.041Z,100.00
2022-07-26T22:24:35.180Z,100.00
2022-07-26T22:34:37.913Z,100.00
2022-07-26T22:44:42.109Z,100.00
2022-07-26T22:54:46.872Z,100.00
2022-07-26T23:04:51.410Z,100.00
2022-07-26T23:14:57.447Z,100.00
2022-07-26T23:25:01.928Z,100.00
2022-07-26T23:35:07.136Z,100.00
2022-07-26T23:45:09.486Z,100.00
2022-07-26T23:55:14.326Z,100.00
